EGNH

Blackpool International Airport

Blackpool, United Kingdom
METAR EGNH 132050Z 10005KT CAVOK 01/M01 Q1021
Observed Flight Rules
Dec-13 @ 20:50 UTC (6 hours ago) Visual Flight Rules
Wind Visibility Clouds
100° at 5 knots 10,000+ meters
  • Clear skies
Temperatures Readings
Current 1°C / 34°F
Dewpoint -1°C / 30°F
Humidity 87%
Altimeter 30.15" Hg
Pressure 1021 hPa
Elevation 10
METAR EGNH 132050Z 10005KT CAVOK 01/M01 Q1021
Observed Flight Rules
Dec-13 @ 20:50 UTC
(6 hours ago)
VFR
Wind Visibility
100° at 5 knots 10,000+ meters
Clouds
  • Clear skies
Temperature Dewpoint
1°C / 34°F -1°C / 30°F
Humidity Altimeter Pressure
87% 30.15" Hg 1021 hPa